createdAt,value
2022-09-15T03:57:56.163Z,99280.66
2022-09-15T04:00:59.714Z,99271.88
2022-09-15T04:04:03.256Z,99284.69
2022-09-15T04:07:06.270Z,99285.81
2022-09-15T04:10:10.059Z,99300.63
2022-09-15T04:13:13.213Z,99308.25
2022-09-15T04:16:18.808Z,99310.41
2022-09-15T04:19:21.674Z,99314.53
2022-09-15T04:22:24.920Z,99316.69
2022-09-15T04:25:28.093Z,99301.19
2022-09-15T04:28:36.642Z,99307.22
2022-09-15T04:31:39.627Z,99307.75
2022-09-15T04:34:42.725Z,99301.47
2022-09-15T04:37:45.656Z,99321.09
2022-09-15T04:40:51.903Z,99328.72
2022-09-15T04:43:55.680Z,99336.38
2022-09-15T04:46:59.182Z,99322.53
2022-09-15T04:50:02.344Z,99322.94
2022-09-15T04:53:05.617Z,99312.47
2022-09-15T04:56:17.227Z,99314.16
2022-09-15T04:59:20.495Z,99314.50
2022-09-15T05:02:23.449Z,99303.84
2022-09-15T05:05:27.130Z,99308.53
2022-09-15T05:08:30.060Z,99308.31
2022-09-15T05:11:33.160Z,99300.19
2022-09-15T05:14:35.793Z,99309.22
2022-09-15T05:17:38.877Z,99315.53
2022-09-15T05:20:41.752Z,99315.03
2022-09-15T05:23:45.414Z,99330.84
2022-09-15T05:26:48.343Z,99340.72
2022-09-15T05:30:04.340Z,99357.94
2022-09-15T05:33:14.221Z,99358.50
2022-09-15T05:36:20.262Z,99352.44
2022-09-15T05:39:23.407Z,99370.19
2022-09-15T05:42:26.594Z,99368.81
2022-09-15T05:45:29.510Z,99378.94
2022-09-15T05:48:34.248Z,99372.12
2022-09-15T05:51:37.086Z,99376.19
2022-09-15T05:54:40.024Z,99372.16
2022-09-15T05:57:42.772Z,99371.91
2022-09-15T06:00:46.773Z,99367.03
2022-09-15T06:03:50.679Z,99367.66
2022-09-15T06:06:53.458Z,99358.34
2022-09-15T06:09:56.624Z,99352.91
2022-09-15T06:12:59.283Z,99362.25
2022-09-15T06:16:08.756Z,99367.44
2022-09-15T06:19:12.261Z,99366.63
2022-09-15T06:22:15.458Z,99367.72
2022-09-15T06:25:18.398Z,99359.00
2022-09-15T06:28:21.878Z,99368.28
2022-09-15T06:31:26.720Z,99380.91
2022-09-15T06:34:30.301Z,99384.75
2022-09-15T06:37:36.505Z,99397.38
2022-09-15T06:40:39.665Z,99394.38
2022-09-15T06:43:42.811Z,99402.31
2022-09-15T06:46:46.232Z,99396.84
2022-09-15T06:49:49.109Z,99399.84
2022-09-15T06:52:52.297Z,99398.19
2022-09-15T06:55:55.121Z,99396.56
2022-09-15T06:58:59.692Z,99402.84
2022-09-15T07:02:05.103Z,99405.03
2022-09-15T07:05:08.760Z,99409.16
2022-09-15T07:08:12.071Z,99405.31
2022-09-15T07:11:16.211Z,99399.00
2022-09-15T07:14:19.129Z,99403.66
2022-09-15T07:17:22.445Z,99419.28
2022-09-15T07:20:26.063Z,99420.34
2022-09-15T07:23:29.913Z,99431.84
2022-09-15T07:26:33.818Z,99428.28
2022-09-15T07:29:38.811Z,99424.13
2022-09-15T07:32:41.843Z,99428.22
2022-09-15T07:35:45.114Z,99425.91
2022-09-15T07:38:49.759Z,99427.09
2022-09-15T07:41:52.866Z,99429.50
2022-09-15T07:44:55.542Z,99429.56
2022-09-15T07:47:58.711Z,99424.56
2022-09-15T07:51:01.812Z,99429.16
2022-09-15T07:54:04.901Z,99432.88
2022-09-15T07:57:08.342Z,99437.28
2022-09-15T08:00:12.543Z,99427.88
2022-09-15T08:03:16.347Z,99432.72
2022-09-15T08:06:23.727Z,99437.78
2022-09-15T08:09:27.017Z,99441.50
2022-09-15T08:12:31.286Z,99430.88
2022-09-15T08:15:37.657Z,99424.94
2022-09-15T08:18:42.533Z,99441.03
2022-09-15T08:21:45.647Z,99432.50
2022-09-15T08:24:48.743Z,99441.50
2022-09-15T08:27:54.030Z,99446.78
2022-09-15T08:31:06.804Z,99434.28
2022-09-15T08:34:15.882Z,99442.09
2022-09-15T08:37:18.608Z,99436.28
2022-09-15T08:40:26.808Z,99426.94
2022-09-15T08:43:35.975Z,99417.22
2022-09-15T08:46:46.368Z,99408.75
2022-09-15T08:50:15.517Z,99406.75
2022-09-15T08:53:38.549Z,99412.19
2022-09-15T08:56:43.512Z,99411.59
2022-09-15T08:59:46.673Z,99407.63
2022-09-15T09:03:16.412Z,99401.75
2022-09-15T09:06:36.235Z,99393.13
2022-09-15T09:09:49.873Z,99384.06
2022-09-15T09:13:10.357Z,99373.41
2022-09-15T09:16:32.954Z,99372.81
2022-09-15T09:19:45.119Z,99371.56
2022-09-15T09:22:51.705Z,99369.00
2022-09-15T09:25:57.160Z,99361.44
2022-09-15T09:29:02.379Z,99350.78
2022-09-15T09:32:19.812Z,99341.66
2022-09-15T09:35:43.146Z,99345.66
2022-09-15T09:38:48.252Z,99357.25
2022-09-15T09:41:51.376Z,99359.28
2022-09-15T09:44:54.574Z,99358.38
2022-09-15T09:48:02.972Z,99361.53
2022-09-15T09:51:31.711Z,99359.09
2022-09-15T09:54:35.529Z,99358.44
2022-09-15T09:57:40.712Z,99339.41
2022-09-15T10:00:43.909Z,99339.53
2022-09-15T10:03:47.477Z,99331.63
2022-09-15T10:06:50.335Z,99332.94
2022-09-15T10:10:01.729Z,99327.75
2022-09-15T10:13:04.703Z,99317.97
2022-09-15T10:16:08.004Z,99317.72
2022-09-15T10:19:14.924Z,99310.88
2022-09-15T10:22:26.492Z,99303.62
2022-09-15T10:25:49.640Z,99289.56
2022-09-15T10:29:11.812Z,99283.94
2022-09-15T10:32:35.679Z,99268.22
2022-09-15T10:35:42.400Z,99271.53
2022-09-15T10:38:48.212Z,99268.06
2022-09-15T10:42:15.700Z,99269.00
2022-09-15T10:45:24.711Z,99274.22
2022-09-15T10:48:49.653Z,99281.50
2022-09-15T10:52:14.024Z,99288.75
2022-09-15T10:55:52.856Z,99288.88
2022-09-15T10:59:08.583Z,99284.47
2022-09-15T11:02:41.063Z,99281.03
2022-09-15T11:06:05.417Z,99275.06
2022-09-15T11:09:13.991Z,99274.28
2022-09-15T11:12:30.674Z,99273.34
2022-09-15T11:15:50.228Z,99268.41
2022-09-15T11:19:06.812Z,99267.31
2022-09-15T11:22:24.610Z,99271.94
2022-09-15T11:25:32.180Z,99272.19
2022-09-15T11:28:47.390Z,99270.19
2022-09-15T11:31:57.488Z,99265.84
2022-09-15T11:35:06.581Z,99268.34
2022-09-15T11:38:34.575Z,99267.38
2022-09-15T11:42:01.356Z,99259.59
2022-09-15T11:45:06.760Z,99257.53
2022-09-15T11:48:28.385Z,99254.66
2022-09-15T11:51:39.440Z,99235.44
2022-09-15T11:54:52.893Z,99214.13
2022-09-15T11:58:16.357Z,99207.81
2022-09-15T12:01:28.639Z,99200.78
2022-09-15T12:04:37.744Z,99189.91
2022-09-15T12:07:51.341Z,99203.63
2022-09-15T12:10:59.046Z,99211.84
2022-09-15T12:14:04.394Z,99219.75
2022-09-15T12:17:11.291Z,99214.16
2022-09-15T12:20:22.945Z,99222.22
2022-09-15T12:23:53.406Z,99211.38
2022-09-15T12:26:59.185Z,99214.22
2022-09-15T12:30:02.470Z,99204.22
2022-09-15T12:33:44.365Z,99193.03
2022-09-15T12:36:49.445Z,99202.94
2022-09-15T12:39:53.957Z,99199.72
2022-09-15T12:42:57.656Z,99197.69
2022-09-15T12:46:02.137Z,99187.91
2022-09-15T12:49:05.291Z,99187.63
2022-09-15T12:52:10.027Z,99201.47
2022-09-15T12:55:29.709Z,99180.16
2022-09-15T12:58:37.633Z,99178.91
2022-09-15T13:01:49.004Z,99198.63
2022-09-15T13:04:54.701Z,99217.72
2022-09-15T13:07:58.181Z,99212.28
2022-09-15T13:11:21.936Z,99207.41
2022-09-15T13:14:32.893Z,99245.31
2022-09-15T13:17:36.567Z,99241.09
2022-09-15T13:20:47.102Z,99241.81
2022-09-15T13:23:53.110Z,99238.69
2022-09-15T13:26:56.890Z,99239.19
2022-09-15T13:30:10.302Z,99243.38
2022-09-15T13:40:47.939Z,99243.62
2022-09-15T13:44:20.640Z,99262.84
2022-09-15T13:47:46.868Z,99256.91
2022-09-15T13:50:59.838Z,99241.22
2022-09-15T13:54:06.832Z,99238.50
2022-09-15T13:57:09.585Z,99232.09
2022-09-15T14:00:22.976Z,99235.50
2022-09-15T14:03:43.750Z,99250.19
2022-09-15T14:06:50.090Z,99234.41
2022-09-15T14:09:52.985Z,99214.63
2022-09-15T14:13:01.223Z,99238.63
2022-09-15T14:16:11.911Z,99255.00
2022-09-15T14:19:35.328Z,99232.53
2022-09-15T14:23:05.154Z,99201.78
2022-09-15T14:26:14.825Z,99214.06
2022-09-15T14:29:20.713Z,99231.47
2022-09-15T14:32:25.328Z,99212.44
2022-09-15T14:35:38.064Z,99212.94
2022-09-15T14:38:41.207Z,99224.00
2022-09-15T14:41:45.542Z,99232.84
2022-09-15T14:48:17.102Z,99278.47
2022-09-15T14:51:20.622Z,99269.13
2022-09-15T14:54:32.790Z,99253.22
2022-09-15T15:09:56.521Z,99301.03
2022-09-15T15:13:05.559Z,99269.78
2022-09-15T15:24:24.030Z,99238.81
2022-09-15T15:27:32.888Z,99223.03
2022-09-15T15:30:46.825Z,99210.78
2022-09-15T15:33:59.186Z,99212.44
2022-09-15T15:41:22.572Z,99242.06
2022-09-15T15:44:28.537Z,99268.75
2022-09-15T15:51:35.635Z,99264.06
2022-09-15T15:54:53.482Z,99235.56
2022-09-15T15:57:56.263Z,99218.47
2022-09-15T16:01:03.199Z,99221.25
2022-09-15T16:04:41.732Z,99223.47
2022-09-15T16:07:47.393Z,99216.19
2022-09-15T16:10:51.752Z,99211.47
2022-09-15T16:13:54.621Z,99205.22
2022-09-15T16:17:00.189Z,99190.16
2022-09-15T16:20:03.585Z,99175.91
2022-09-15T16:23:07.655Z,99170.06
